Pagrindinis puslapis
METAR-TAF:

METAR-TAF

Oro uostai :

Sandefjordas, Norvegija

platuma: 59-12N, ilguma: 010-16E, Aukštis: 8 m

Dabartinis oras

Ataskaita buvo paskelbta 36 minutes, ne 09:50 UTC
Vėjas 3 kt iš Šiaurės Vakarų
Temperatūra -5°C
Drėgmė 73%
Slėgis 1010 hPa
Matomumas 10 km arba daugiau
nėra debesų žemiau 1500 m ir nėra kamuolinių lietaus debesų

METAR: ENTO 070950Z 31003KT CAVOK M05/M09 Q1010 NOSIG

Laikas: 11:26 (10:26 UTC)

Prognozė

Prognozė galioja nuo 07 metu 06 UTC su 08 metu 06 UTC
Vėjas 7 kt iš Šiaurės/Šiaurės Vakarų
Matomumas 10 km arba daugiau
Mažai debesys ne aukštis 3000 ft

TAF: ENTO 0706/0806 34007KT 9999 FEW030

Orai ataskaitas ir orų prognozės (METAR, TAF).

turimą stotys yra geltonos ir raudonos taškus žemėlapyje.

Perkelti pele per norėdami pamatyti stoties vardą.

Tada spustelėkite, norėdami matyti oro stebėjimo ir prognozės.

Norėdami pakeisti žemėlapį: spustelėkite ant žalios mygtukų su juodo kryžiaus žemyn,; žalią mygtuką su brūkšneliu, jei norite nutolinti; arba žalių rodyklių gretimoms žemėlapius.


METAR-TAF: